Sidney, MT (59270)

10:23 PM MDT on October 01, 2014 (GMT -0600)
Sidney-Richland Municipal | Change Station
CLOSE
Current Station
Airport
Location: Sidney-Richland,
Elevation: 1985 ft
Nearby Weather Stations

Elev 1985 ft 47.71 °N, 104.19 °W | Updated 8 minutes ago

Clear
Clear
46 °F
Feels Like 46 °F
N
0
Wind Variable Wind from North

Today
High -- | Low -- °F
--% Chance of Precip.
Yesterday
High -- | Low -- °F
Precip. -- in
6:55 AM 6:35 PM
First Quarter, 54% visible
Pressure 29.90 in
Visibility 10.0 miles
Clouds Clear
Dew Point 43 °F
Humidity 87%
Rainfall 0.60 in
Snow Depth 0 in , 0 in , 0 in
UV 0 out of 12
Pollen .10 out of 12
Air Quality Not available.
Flu Activity Not available.
METAR KSDY 020415Z AUTO 00000KT 10SM CLR 08/06 A2990 RMK AO1

More Conditions Fewer Conditions

Pressure 29.90 in
Visibility 10.0 miles
Clouds Clear
Dew Point 43 °F
Humidity 87%
Rainfall 0.60 in
Snow Depth 0 in , 0 in , 0 in
UV 0 out of 12
Pollen .10 out of 12
Air Quality Not available.
Flu Activity Not available.
METAR KSDY 020415Z AUTO 00000KT 10SM CLR 08/06 A2990 RMK AO1

More Conditions Fewer Conditions

10-Day Weather Forecast

Almanac

Astronomy

Oct. 01, 2014 Rise Set
Actual Time 6:55 AM MDT 6:35 PM MDT
Civil Twilight 6:25 AM MDT 7:06 PM MDT
Nautical Twilight 5:49 AM MDT 7:42 PM MDT
Astronomical Twilight 5:12 AM MDT 8:18 PM MDT
Moon 2:17 PM MDT (10/1) 11:52 PM MDT (10/1)
Length of Visible Light 12h 41m
Length of Day
11h 40m
Tomorrow will be 3m 24s shorter.
First Quarter, 54% of the Moon is Illuminated
Oct 2
First Quarter
Oct 8
Full
Oct 15
Last Quarter
Oct 23
New
Oct 30
First Quarter

Yesterday's Extremes

State Highs State Lows

Community

WunderPhotos

Upload Photos

1,758,186 photos uploaded!

Nearby

Snow Depth

Station Depth Elevation
Darkhorse Lake 0 in 8700 ft
Moss Peak 0 in 6780 ft
Nez Perce Camp 0 in 5650 ft
Bisson Creek 0 in 4925 ft
Deadman Creek 0 in 6450 ft

Earthquake Activity

City Distance Mag. Time & Date
No recent earthquake activity has been reported nearby.
Minimum magnitude displayed is 2.5.

Coastal Water Temperatures

Place Temperature
No Stations Reporting

Nearby Weather Stations